Time;durP1;ratioP1;P1;durP2;ratioP2;P2;SDS_P1;SDS_P2;PMS_P1;PMS_P2;Temp;Humidity;BMP_temperature;BMP_pressure;BME280_temperature;BME280_humidity;BME280_pressure;Samples;Min_cycle;Max_cycle;Signal;HPM_P1;HPM_P2
2022/12/24 00:05:51;;;;;;;40.17;31.02;;;9.80;85.70;;;;;;10946795;32;20027;-72
2022/12/24 00:11:53;;;;;;;38.40;32.55;;;9.80;86.30;;;;;;10948471;32;20046;-72
2022/12/24 00:17:55;;;;;;;27.27;24.40;;;9.80;86.40;;;;;;10948198;32;20023;-72
2022/12/24 00:23:57;;;;;;;31.83;25.45;;;9.90;86.90;;;;;;10214199;32;22087995;-72
2022/12/24 00:29:59;;;;;;;45.25;23.35;;;9.90;86.70;;;;;;10831697;32;20334;-72
2022/12/24 00:36:01;;;;;;;30.52;25.80;;;9.70;86.70;;;;;;10831704;32;20037;-72
2022/12/24 00:42:03;;;;;;;22.67;19.50;;;9.50;86.90;;;;;;10831977;32;20027;-72
2022/12/24 00:48:05;;;;;;;27.45;19.15;;;9.40;86.90;;;;;;10862301;32;20015;-72
2022/12/24 00:54:07;;;;;;;32.55;24.77;;;9.50;87.00;;;;;;10933568;32;20426;-74
2022/12/24 01:00:10;;;;;;;29.40;22.83;;;9.70;86.90;;;;;;10946739;32;20347;-74
2022/12/24 01:06:14;;;;;;;35.58;25.98;;;9.80;86.50;;;;;;10946090;32;20090;-74
2022/12/24 01:12:17;;;;;;;24.08;18.92;;;9.80;86.40;;;;;;10946448;32;20015;-74
2022/12/24 01:18:19;;;;;;;29.77;23.58;;;9.70;86.30;;;;;;10946189;32;20023;-72
2022/12/24 01:24:21;;;;;;;24.92;20.40;;;9.50;86.50;;;;;;10945796;32;20431;-72
2022/12/24 01:30:23;;;;;;;33.65;25.17;;;9.30;86.60;;;;;;10945757;32;20019;-72
2022/12/24 01:36:25;;;;;;;30.95;23.77;;;9.10;86.90;;;;;;10932143;32;20034;-72
2022/12/24 01:48:55;;;;;;;37.47;26.42;;;9.40;86.70;;;;;;10945259;32;20015;-72
2022/12/24 01:54:59;;;;;;;34.33;26.67;;;9.50;86.90;;;;;;10931426;32;20015;-72
2022/12/24 02:01:02;;;;;;;34.00;27.52;;;9.60;86.80;;;;;;10944661;32;20020;-72
2022/12/24 02:07:05;;;;;;;38.40;29.52;;;9.50;86.50;;;;;;10944458;32;20345;-72
2022/12/24 02:13:07;;;;;;;34.80;27.20;;;9.40;86.60;;;;;;10944173;32;20007;-72
2022/12/24 02:19:09;;;;;;;36.63;26.77;;;9.30;86.80;;;;;;10929406;32;20034;-72
2022/12/24 02:25:29;;;;;;;36.53;26.23;;;9.40;86.80;;;;;;10927324;32;20023;-72
2022/12/24 02:31:42;;;;;;;34.53;25.92;;;9.50;86.70;;;;;;10944245;32;20432;-73
2022/12/24 02:37:53;;;;;;;32.60;22.20;;;9.50;86.60;;;;;;10929890;32;20424;-73
2022/12/24 02:43:57;;;;;;;19.23;16.85;;;9.40;86.70;;;;;;10929635;32;20019;-73
2022/12/24 02:50:02;;;;;;;22.83;18.77;;;9.40;86.80;;;;;;10942953;32;20023;-73
2022/12/24 02:56:28;;;;;;;32.08;25.10;;;9.20;86.90;;;;;;10916483;32;20053;-74
2022/12/24 03:02:45;;;;;;;34.70;26.05;;;9.30;87.20;;;;;;10942438;32;20016;-74
2022/12/24 03:09:08;;;;;;;38.70;30.58;;;9.50;87.10;;;;;;10942326;32;20019;-74
2022/12/24 03:15:14;;;;;;;27.77;21.58;;;9.60;87.10;;;;;;10942191;32;20049;-73
2022/12/24 03:21:41;;;;;;;46.05;34.88;;;9.50;86.90;;;;;;10941867;32;20057;-73
2022/12/24 03:27:44;;;;;;;27.05;20.48;;;9.50;87.30;;;;;;10941690;32;20053;-73
2022/12/24 03:33:47;;;;;;;31.35;23.52;;;9.30;87.00;;;;;;10928007;32;20069;-73
2022/12/24 03:39:49;;;;;;;28.50;19.58;;;9.20;87.10;;;;;;10941568;32;20015;-73
2022/12/24 03:45:51;;;;;;;42.78;33.83;;;9.10;87.30;;;;;;10941456;32;20042;-73
2022/12/24 03:51:53;;;;;;;50.35;38.03;;;9.30;87.50;;;;;;10938653;32;20054;-73
2022/12/24 03:57:55;;;;;;;27.70;23.87;;;9.40;87.50;;;;;;10941207;32;20406;-73
2022/12/24 04:03:57;;;;;;;30.25;24.12;;;9.50;87.40;;;;;;10927382;32;20356;-73
2022/12/24 04:09:58;;;;;;;26.40;21.40;;;9.30;87.20;;;;;;10937055;32;20015;-73
2022/12/24 04:16:06;;;;;;;33.28;25.75;;;9.20;87.30;;;;;;10940944;32;20011;-73
2022/12/24 04:22:08;;;;;;;33.13;25.17;;;9.20;87.50;;;;;;10940597;32;20057;-74
2022/12/24 04:28:11;;;;;;;38.20;31.08;;;9.20;87.50;;;;;;10940680;32;20045;-73
2022/12/24 04:34:13;;;;;;;36.38;28.48;;;9.20;87.50;;;;;;10936619;32;20072;-73
2022/12/24 04:40:16;;;;;;;37.03;28.15;;;9.00;87.40;;;;;;10928747;32;20053;-73
2022/12/24 04:46:21;;;;;;;48.08;34.10;;;9.10;87.80;;;;;;10947263;32;20019;-73
2022/12/24 04:52:23;;;;;;;40.28;28.92;;;9.10;87.60;;;;;;10947220;32;20046;-73
2022/12/24 04:58:26;;;;;;;39.50;30.00;;;9.10;87.60;;;;;;10946806;32;20014;-74
2022/12/24 05:04:27;;;;;;;26.67;21.27;;;9.20;87.80;;;;;;10946675;32;20015;-73
2022/12/24 05:10:29;;;;;;;36.03;26.20;;;9.20;87.70;;;;;;10946430;32;20337;-76
2022/12/24 05:16:31;;;;;;;40.33;30.17;;;9.20;87.70;;;;;;10932758;32;20015;-76
2022/12/24 05:28:56;;;;;;;56.65;45.65;;;9.20;87.60;;;;;;10945971;32;20034;-76
2022/12/24 05:34:58;;;;;;;41.47;33.53;;;9.10;87.80;;;;;;10945613;32;20050;-76
2022/12/24 05:41:00;;;;;;;35.50;26.25;;;8.90;88.00;;;;;;10945411;32;20436;-76
2022/12/24 05:47:02;;;;;;;46.30;34.30;;;8.80;88.10;;;;;;10945202;32;20006;-76
2022/12/24 05:53:05;;;;;;;40.03;28.52;;;8.90;88.10;;;;;;10940736;32;20034;-76
2022/12/24 05:59:07;;;;;;;26.30;21.83;;;9.10;87.90;;;;;;10944735;32;20042;-76
2022/12/24 06:05:09;;;;;;;34.35;26.40;;;9.20;87.80;;;;;;10944483;32;20019;-76
2022/12/24 06:11:13;;;;;;;36.22;29.70;;;9.30;87.70;;;;;;10944241;32;20041;-76
2022/12/24 06:17:15;;;;;;;29.75;26.08;;;9.20;87.60;;;;;;10944043;32;20042;-76
2022/12/24 06:23:18;;;;;;;24.37;19.83;;;9.20;87.80;;;;;;10939718;32;20031;-76
2022/12/24 06:29:20;;;;;;;42.22;33.63;;;9.20;87.80;;;;;;10929874;32;20057;-76
2022/12/24 06:35:23;;;;;;;25.90;22.37;;;9.10;87.90;;;;;;10929891;32;20038;-76
2022/12/24 06:41:25;;;;;;;46.83;38.90;;;9.20;88.30;;;;;;10929827;32;20019;-76
2022/12/24 06:47:27;;;;;;;35.33;28.38;;;9.30;88.30;;;;;;10944358;32;20023;-76
2022/12/24 06:53:29;;;;;;;40.30;30.65;;;9.20;88.40;;;;;;10942884;32;20041;-76
2022/12/24 06:59:32;;;;;;;35.83;28.02;;;9.10;88.20;;;;;;10928998;32;20049;-76
2022/12/24 07:05:34;;;;;;;26.08;20.33;;;9.10;88.30;;;;;;10942019;32;20055;-76
2022/12/24 07:11:36;;;;;;;31.20;24.98;;;9.10;88.10;;;;;;10942532;32;20023;-76
2022/12/24 07:17:38;;;;;;;36.10;25.50;;;9.10;88.30;;;;;;10924087;32;20027;-76
2022/12/24 07:23:40;;;;;;;31.35;24.48;;;9.20;88.50;;;;;;10941667;32;20452;-76
2022/12/24 07:29:56;;;;;;;26.58;21.27;;;9.30;88.20;;;;;;10941864;32;20034;-76
2022/12/24 07:36:08;;;;;;;27.67;21.35;;;9.20;88.20;;;;;;10941848;32;20015;-75
2022/12/24 07:42:09;;;;;;;31.52;25.35;;;9.20;88.30;;;;;;10941719;32;20089;-75
2022/12/24 07:48:12;;;;;;;19.05;15.50;;;9.30;88.30;;;;;;10941689;32;20027;-75
2022/12/24 07:54:14;;;;;;;22.95;18.00;;;9.30;88.10;;;;;;10915228;32;20065;-75
2022/12/24 08:00:17;;;;;;;17.87;15.18;;;9.20;88.20;;;;;;10915227;32;20499;-76
2022/12/24 08:06:24;;;;;;;28.27;20.12;;;9.30;88.20;;;;;;10941272;32;20011;-75
2022/12/24 08:12:26;;;;;;;38.22;28.58;;;9.20;88.10;;;;;;10941078;32;20011;-76
2022/12/24 08:18:28;;;;;;;26.35;21.45;;;9.30;88.20;;;;;;10934889;32;20427;-76
2022/12/24 08:24:30;;;;;;;29.37;21.92;;;9.40;88.10;;;;;;10927932;27;20043;-76
2022/12/24 08:30:32;;;;;;;33.88;22.23;;;9.40;88.00;;;;;;10929914;32;20054;-76
2022/12/24 08:36:34;;;;;;;30.70;25.58;;;9.30;88.10;;;;;;10929578;32;20030;-76
2022/12/24 08:42:36;;;;;;;35.00;27.00;;;9.40;88.20;;;;;;10947444;32;20020;-76
2022/12/24 08:48:40;;;;;;;36.65;28.25;;;9.50;88.30;;;;;;10947519;32;20089;-76
2022/12/24 08:54:42;;;;;;;35.45;26.42;;;9.50;88.40;;;;;;10941198;32;20053;-76
2022/12/24 09:00:45;;;;;;;32.13;24.55;;;9.60;88.40;;;;;;10933141;32;20054;-76
2022/12/24 09:06:47;;;;;;;29.27;22.33;;;9.60;88.40;;;;;;10946743;32;20393;-75
2022/12/24 09:12:49;;;;;;;30.95;22.52;;;9.50;88.40;;;;;;10946441;32;20023;-76
2022/12/24 09:18:51;;;;;;;35.35;26.12;;;9.60;88.50;;;;;;10946197;32;20045;-76
2022/12/24 09:24:54;;;;;;;31.25;24.15;;;9.60;88.40;;;;;;10931708;32;20439;-75
2022/12/24 09:31:01;;;;;;;30.02;22.30;;;9.60;88.30;;;;;;10932184;32;20019;-76
2022/12/24 09:37:03;;;;;;;50.55;39.70;;;9.40;88.00;;;;;;10945704;32;20015;-75
2022/12/24 09:43:14;;;;;;;40.83;33.00;;;9.40;88.30;;;;;;10945411;32;20401;-75
2022/12/24 09:49:21;;;;;;;49.92;36.13;;;9.40;88.60;;;;;;10945362;32;20014;-75
2022/12/24 09:55:35;;;;;;;38.83;28.50;;;9.40;88.50;;;;;;10928526;32;20027;-75
2022/12/24 10:01:39;;;;;;;35.35;29.05;;;9.40;88.30;;;;;;10944747;32;20057;-75
2022/12/24 10:08:02;;;;;;;29.33;23.60;;;9.40;88.40;;;;;;10944599;32;20427;-76
2022/12/24 10:14:17;;;;;;;33.97;23.75;;;9.50;88.60;;;;;;10930536;32;20074;-76
2022/12/24 10:20:23;;;;;;;29.40;22.98;;;9.60;88.50;;;;;;10944089;32;20023;-76
2022/12/24 10:26:49;;;;;;;29.95;23.23;;;9.70;88.50;;;;;;10943843;32;20049;-75
2022/12/24 10:32:52;;;;;;;27.45;21.73;;;9.80;88.50;;;;;;10943559;32;20041;-75
2022/12/24 10:38:55;;;;;;;27.35;23.10;;;9.80;88.10;;;;;;10942302;32;20011;-76
2022/12/24 10:45:30;;;;;;;44.03;32.97;;;9.70;88.30;;;;;;10943208;32;20023;-75
2022/12/24 10:52:18;;;;;;;27.90;22.27;;;9.80;88.50;;;;;;10943044;32;20023;-75
2022/12/24 10:58:21;;;;;;;18.45;15.30;;;9.90;88.60;;;;;;10942900;32;20023;-75
2022/12/24 11:04:25;;;;;;;29.12;21.92;;;10.00;88.50;;;;;;10942299;32;20018;-75
2022/12/24 11:10:27;;;;;;;26.35;20.48;;;10.20;88.50;;;;;;10942439;32;20046;-75
2022/12/24 11:16:35;;;;;;;27.48;22.65;;;10.20;88.20;;;;;;10939713;32;20046;-75
2022/12/24 11:22:37;;;;;;;35.28;24.80;;;10.10;88.00;;;;;;10928498;32;20023;-75
2022/12/24 11:28:39;;;;;;;31.90;21.95;;;10.10;88.10;;;;;;10915561;32;20038;-75
2022/12/24 11:34:43;;;;;;;35.72;24.17;;;10.00;87.90;;;;;;10937198;32;20046;-75
2022/12/24 11:41:22;;;;;;;26.75;20.27;;;10.00;87.80;;;;;;10941483;32;20031;-75
2022/12/24 11:47:39;;;;;;;23.37;17.27;;;10.10;88.20;;;;;;10926864;32;20070;-75
2022/12/24 11:53:49;;;;;;;29.90;20.65;;;10.20;88.10;;;;;;10923099;32;20412;-75
2022/12/24 11:59:51;;;;;;;23.73;16.98;;;10.30;87.80;;;;;;10935720;32;20042;-75
2022/12/24 12:06:12;;;;;;;26.15;20.37;;;10.20;87.70;;;;;;10948945;32;20072;-75
2022/12/24 12:12:26;;;;;;;37.33;26.27;;;10.20;87.90;;;;;;10936484;32;20042;-73
2022/12/24 12:18:39;;;;;;;23.83;19.35;;;10.30;87.90;;;;;;10948481;32;20345;-73
2022/12/24 12:24:47;;;;;;;21.83;16.60;;;10.30;87.70;;;;;;10946509;32;20015;-73
2022/12/24 12:31:02;;;;;;;27.13;19.90;;;10.30;87.70;;;;;;10948160;32;20389;-73
2022/12/24 12:37:13;;;;;;;28.95;21.42;;;10.40;87.50;;;;;;10933258;32;20042;-73
2022/12/24 12:43:50;;;;;;;30.52;23.33;;;10.30;87.20;;;;;;10934153;32;20049;-73
2022/12/24 12:50:01;;;;;;;34.42;24.98;;;10.30;87.10;;;;;;10930273;32;20428;-73
2022/12/24 12:56:30;;;;;;;29.65;22.45;;;10.30;87.00;;;;;;10933729;32;20011;-73
2022/12/24 13:02:34;;;;;;;28.77;19.85;;;10.30;87.10;;;;;;10946181;32;20377;-73
2022/12/24 13:09:10;;;;;;;36.22;24.40;;;10.40;87.20;;;;;;10946941;32;20352;-73
2022/12/24 13:15:28;;;;;;;32.03;21.77;;;10.40;86.90;;;;;;10946701;32;20034;-73
2022/12/24 13:21:31;;;;;;;18.80;13.70;;;10.30;87.00;;;;;;10946673;32;20044;-73
2022/12/24 13:27:34;;;;;;;30.75;22.58;;;10.40;87.10;;;;;;10946013;32;20042;-73
2022/12/24 13:33:36;;;;;;;22.85;18.15;;;10.50;87.00;;;;;;10932522;32;20337;-73
2022/12/24 13:40:11;;;;;;;20.77;16.52;;;10.60;86.70;;;;;;10945774;32;20049;-73
2022/12/24 13:47:01;;;;;;;31.45;19.05;;;10.70;86.70;;;;;;10944695;32;20022;-73
2022/12/24 13:53:05;;;;;;;22.95;16.65;;;10.80;86.60;;;;;;10922922;32;20294;-73
2022/12/24 13:59:23;;;;;;;31.58;20.95;;;10.70;86.50;;;;;;10942137;32;20019;-73
2022/12/24 14:05:42;;;;;;;41.47;28.33;;;10.70;86.40;;;;;;10944707;32;20050;-73
2022/12/24 14:12:02;;;;;;;40.75;26.67;;;10.70;86.40;;;;;;10940087;32;20067;-73
2022/12/24 14:18:24;;;;;;;46.05;26.60;;;10.70;86.20;;;;;;10931529;32;20042;-73
2022/12/24 14:24:36;;;;;;;38.10;30.05;;;11.00;85.80;;;;;;10941410;32;20057;-73
2022/12/24 14:30:38;;;;;;;39.97;28.92;;;11.20;85.30;;;;;;10943869;32;20019;-73
2022/12/24 14:36:42;;;;;;;35.00;24.48;;;11.50;84.60;;;;;;10929549;32;20307;-75
2022/12/24 14:42:53;;;;;;;30.50;21.50;;;11.40;84.90;;;;;;10943315;32;20054;-75
2022/12/24 14:49:16;;;;;;;28.70;20.58;;;11.40;85.00;;;;;;10939193;32;20341;-75
2022/12/24 14:55:44;;;;;;;21.17;14.93;;;11.20;85.50;;;;;;10927615;32;20053;-75
2022/12/24 15:01:47;;;;;;;20.30;13.75;;;11.00;86.00;;;;;;10926258;32;20027;-75
2022/12/24 15:07:58;;;;;;;21.25;14.10;;;10.80;86.30;;;;;;10942585;32;20037;-75
2022/12/24 15:14:00;;;;;;;17.65;12.65;;;10.70;86.50;;;;;;10938397;32;20045;-74
2022/12/24 15:20:03;;;;;;;21.62;16.42;;;10.60;86.70;;;;;;10941923;32;20042;-73
2022/12/24 15:26:24;;;;;;;19.27;13.82;;;10.40;86.80;;;;;;10941440;32;20100;-73
2022/12/24 15:32:26;;;;;;;26.92;22.45;;;10.30;86.80;;;;;;10940356;32;20014;-73
2022/12/24 15:38:41;;;;;;;20.37;15.00;;;10.20;87.00;;;;;;10939977;32;20352;-73
2022/12/24 15:44:59;;;;;;;18.37;13.85;;;10.20;87.00;;;;;;10941354;32;20012;-73
2022/12/24 15:51:03;;;;;;;19.92;14.13;;;10.10;87.10;;;;;;10941500;32;20057;-73
2022/12/24 15:57:35;;;;;;;22.55;16.30;;;10.00;87.10;;;;;;10927839;32;20051;-73
2022/12/24 16:03:53;;;;;;;29.27;19.95;;;10.00;87.10;;;;;;10788903;32;20051;-73
2022/12/24 16:10:13;;;;;;;28.08;22.58;;;9.90;87.20;;;;;;10789235;32;20052;-73
2022/12/24 16:16:20;;;;;;;21.27;16.10;;;9.90;87.30;;;;;;10787939;32;20025;-73
2022/12/24 16:22:31;;;;;;;31.35;26.23;;;9.90;87.30;;;;;;10782381;27;20052;-73
2022/12/24 16:28:34;;;;;;;23.02;18.00;;;9.80;87.30;;;;;;10751329;33;20012;-73
2022/12/24 16:34:36;;;;;;;27.27;19.67;;;9.70;87.40;;;;;;10752660;33;20052;-73
2022/12/24 16:40:39;;;;;;;31.30;22.95;;;9.80;87.40;;;;;;10862428;32;20043;-73
2022/12/24 16:46:42;;;;;;;19.83;15.60;;;9.80;87.40;;;;;;10872406;32;20410;-73
2022/12/24 16:52:44;;;;;;;23.12;17.02;;;9.80;87.30;;;;;;10859013;32;20028;-73
2022/12/24 16:58:46;;;;;;;21.58;17.35;;;9.80;87.20;;;;;;10857232;32;20027;-73
2022/12/24 17:04:48;;;;;;;18.23;13.85;;;9.80;87.30;;;;;;10867941;32;20024;-73
2022/12/24 17:10:51;;;;;;;22.83;19.37;;;9.80;87.30;;;;;;10871786;32;20034;-73
2022/12/24 17:16:53;;;;;;;23.67;17.25;;;9.90;87.50;;;;;;10870646;32;20038;-73
2022/12/24 17:22:55;;;;;;;25.98;17.40;;;9.90;87.30;;;;;;10871328;32;20338;-73
2022/12/24 17:28:58;;;;;;;27.55;21.08;;;9.70;87.10;;;;;;10871160;32;20016;-73
2022/12/24 17:35:01;;;;;;;31.98;23.27;;;9.70;87.30;;;;;;10870989;32;20033;-73
2022/12/24 17:41:09;;;;;;;42.30;28.02;;;9.70;87.20;;;;;;10870661;32;20051;-73
2022/12/24 17:47:11;;;;;;;33.17;23.53;;;9.60;87.10;;;;;;10856735;32;20027;-73
2022/12/24 17:53:14;;;;;;;32.30;23.15;;;9.60;87.20;;;;;;10870301;32;20042;-73
2022/12/24 17:59:16;;;;;;;29.55;20.77;;;9.60;87.20;;;;;;10856341;32;20031;-73
2022/12/24 18:05:18;;;;;;;22.67;18.55;;;9.60;87.20;;;;;;10869592;32;20028;-73
2022/12/24 18:11:31;;;;;;;30.50;24.05;;;9.60;87.30;;;;;;10867646;32;20028;-73
2022/12/24 18:17:33;;;;;;;35.80;26.23;;;9.70;87.20;;;;;;10869292;32;20046;-73
2022/12/24 18:23:36;;;;;;;20.45;14.93;;;9.70;87.40;;;;;;10868898;32;20062;-73
2022/12/24 18:29:41;;;;;;;17.70;13.45;;;9.70;87.30;;;;;;10854257;32;20054;-73
2022/12/24 18:35:43;;;;;;;23.73;18.37;;;9.80;87.30;;;;;;10868897;32;20350;-73
2022/12/24 18:41:45;;;;;;;22.92;17.52;;;9.80;87.30;;;;;;10863922;32;20059;-73
2022/12/24 18:47:47;;;;;;;31.00;24.05;;;9.80;87.40;;;;;;10867692;32;20031;-73
2022/12/24 18:53:50;;;;;;;24.98;18.52;;;9.90;87.40;;;;;;10854380;32;20035;-73
2022/12/24 18:59:52;;;;;;;23.30;17.37;;;9.90;87.30;;;;;;10866729;32;20024;-73
2022/12/24 19:06:00;;;;;;;21.90;17.02;;;9.70;87.30;;;;;;10867774;32;20019;-73
2022/12/24 19:12:03;;;;;;;27.27;19.52;;;9.70;87.50;;;;;;10854127;32;20054;-73
2022/12/24 19:18:05;;;;;;;61.75;48.28;;;9.70;87.60;;;;;;10867400;32;20071;-72
2022/12/24 19:24:09;;;;;;;39.67;29.70;;;9.70;87.30;;;;;;10867119;32;20027;-73
2022/12/24 19:30:12;;;;;;;38.28;29.37;;;9.50;87.00;;;;;;10867128;32;20042;-72
2022/12/24 19:36:17;;;;;;;41.72;28.20;;;9.50;87.20;;;;;;10866977;32;20307;-72
2022/12/24 19:42:19;;;;;;;35.95;27.95;;;9.50;87.20;;;;;;10866932;32;20028;-72
2022/12/24 19:48:22;;;;;;;33.65;24.40;;;9.60;87.20;;;;;;10853304;32;20039;-72
2022/12/24 19:54:24;;;;;;;27.48;21.52;;;9.70;87.10;;;;;;10853381;32;20020;-73
2022/12/24 20:00:26;;;;;;;25.98;17.65;;;9.70;87.20;;;;;;10866540;32;20016;-72
2022/12/24 20:06:31;;;;;;;31.50;22.02;;;9.70;87.20;;;;;;10848892;32;20032;-72
2022/12/24 20:12:52;;;;;;;27.48;19.92;;;9.70;87.00;;;;;;10871453;32;20024;-72
2022/12/24 20:18:59;;;;;;;34.65;24.17;;;9.60;86.70;;;;;;10873330;32;20397;-72
2022/12/24 20:25:01;;;;;;;36.03;26.83;;;9.50;86.60;;;;;;10870555;32;20050;-72
2022/12/24 20:31:23;;;;;;;43.33;29.83;;;9.50;86.50;;;;;;10873107;32;20016;-72
2022/12/24 20:37:25;;;;;;;31.95;24.75;;;9.50;86.60;;;;;;10872963;32;20410;-72
2022/12/24 20:43:27;;;;;;;32.38;23.70;;;9.60;86.90;;;;;;10872647;32;20042;-73
2022/12/24 20:49:29;;;;;;;44.15;34.35;;;9.70;86.80;;;;;;10854970;32;20058;-72
2022/12/24 20:55:32;;;;;;;37.40;27.23;;;9.60;86.80;;;;;;10872297;32;20043;-72
2022/12/24 21:01:35;;;;;;;36.90;28.85;;;9.50;86.80;;;;;;10869804;32;20040;-72
2022/12/24 21:07:38;;;;;;;34.35;26.90;;;9.50;86.90;;;;;;10871879;32;20028;-73
2022/12/24 21:13:41;;;;;;;37.63;24.85;;;9.50;86.90;;;;;;10882002;32;20027;-73
2022/12/24 21:19:43;;;;;;;40.42;25.62;;;9.60;87.00;;;;;;10858271;32;20020;-72
2022/12/24 21:25:57;;;;;;;26.75;19.80;;;9.60;86.80;;;;;;10870724;32;20062;-72
2022/12/24 21:32:01;;;;;;;34.63;24.42;;;9.60;86.90;;;;;;10870993;32;20030;-72
2022/12/24 21:38:05;;;;;;;34.58;23.58;;;9.50;86.90;;;;;;10868326;32;20207;-72
2022/12/24 21:44:08;;;;;;;22.27;16.87;;;9.50;86.80;;;;;;10854676;32;20058;-72
2022/12/24 21:57:51;;;;;;;38.33;29.15;;;9.40;86.50;;;;;;10866176;32;20042;-72
2022/12/24 22:02:56;;;;;;;47.90;33.08;;;9.30;86.40;;;;;;10871110;32;20027;-73
2022/12/24 22:15:19;;;;;;;42.70;30.58;;;9.20;86.20;;;;;;10869483;32;20032;-73
2022/12/24 22:21:21;;;;;;;33.95;25.98;;;9.20;86.10;;;;;;10869174;32;20020;-73
2022/12/24 22:27:23;;;;;;;39.88;30.30;;;9.20;86.20;;;;;;10869095;32;20028;-73
2022/12/24 22:33:25;;;;;;;33.30;23.30;;;9.20;86.10;;;;;;10854956;32;20054;-73
2022/12/24 22:39:27;;;;;;;30.30;22.33;;;9.20;86.20;;;;;;10852680;32;20027;-73
2022/12/24 22:45:29;;;;;;;33.55;25.15;;;9.30;86.30;;;;;;10854875;32;20303;-72
2022/12/24 22:51:31;;;;;;;46.30;32.33;;;9.40;86.50;;;;;;10851854;32;20031;-72
2022/12/24 22:57:33;;;;;;;29.58;20.90;;;9.50;86.50;;;;;;10868118;32;20046;-72
2022/12/24 23:03:35;;;;;;;25.90;18.08;;;9.50;86.60;;;;;;10867817;32;20063;-72
2022/12/24 23:09:38;;;;;;;23.95;18.73;;;9.50;86.50;;;;;;10863757;32;20051;-72
2022/12/24 23:15:40;;;;;;;19.85;12.55;;;9.50;86.70;;;;;;10867653;32;20365;-72
2022/12/24 23:21:42;;;;;;;23.42;16.92;;;9.50;86.70;;;;;;10854017;32;20393;-73
2022/12/24 23:27:44;;;;;;;16.90;13.05;;;9.40;86.80;;;;;;10867220;32;20020;-72
2022/12/24 23:33:47;;;;;;;12.82;8.10;;;9.50;86.90;;;;;;10853851;32;20052;-72
2022/12/24 23:39:48;;;;;;;16.45;11.45;;;9.50;86.80;;;;;;10866962;32;20024;-72
2022/12/24 23:45:52;;;;;;;17.45;12.13;;;9.50;86.90;;;;;;10872399;32;20046;-74
2022/12/24 23:51:54;;;;;;;20.73;14.38;;;9.50;86.90;;;;;;10879181;32;20024;-74
2022/12/24 23:57:57;;;;;;;15.95;10.45;;;9.50;87.10;;;;;;10876561;32;20031;-74
